Time;durP1;ratioP1;P1;durP2;ratioP2;P2;SDS_P1;SDS_P2;PMS_P1;PMS_P2;Temp;Humidity;BMP_temperature;BMP_pressure;BME280_temperature;BME280_humidity;BME280_pressure;Samples;Min_cycle;Max_cycle;Signal;HPM_P1;HPM_P2
2023/03/25 00:00:31;;;;;;;6.60;1.10;;;;;;;10.14;74.76;99266.05;109899;1267;22192;-60
2023/03/25 00:03:23;;;;;;;7.90;1.00;;;;;;;10.11;74.65;99267.43;109846;1274;22180;-60
2023/03/25 00:05:54;;;;;;;5.90;0.80;;;;;;;10.06;74.78;99267.35;109874;1282;22237;-60
2023/03/25 00:08:25;;;;;;;7.40;1.00;;;;;;;10.03;74.74;99265.85;109896;1277;22949;-60
2023/03/25 00:10:57;;;;;;;10.00;1.40;;;;;;;9.99;74.75;99261.37;109879;1270;22245;-60
2023/03/25 00:13:30;;;;;;;5.60;1.10;;;;;;;9.96;74.96;99258.02;109894;1276;22193;-60
2023/03/25 00:16:02;;;;;;;6.00;0.90;;;;;;;9.94;74.86;99257.80;109865;1273;22263;-60
2023/03/25 00:18:34;;;;;;;6.80;1.00;;;;;;;9.93;74.82;99258.75;109885;1268;22233;-60
2023/03/25 00:21:09;;;;;;;8.10;1.40;;;;;;;9.91;74.86;99257.12;109888;1283;22150;-60
2023/03/25 00:23:41;;;;;;;6.50;1.30;;;;;;;9.91;74.94;99259.16;109863;1279;22197;-61
2023/03/25 00:26:12;;;;;;;9.20;1.60;;;;;;;9.92;74.91;99253.98;109872;1273;22202;-60
2023/03/25 00:28:43;;;;;;;12.30;2.00;;;;;;;9.91;74.81;99250.43;109887;1270;23009;-60
2023/03/25 00:31:15;;;;;;;9.90;2.70;;;;;;;9.92;75.02;99247.74;105493;1273;5764354;-60
2023/03/25 00:33:46;;;;;;;11.50;2.50;;;;;;;9.92;74.94;99242.88;109873;1276;22305;-61
2023/03/25 00:36:17;;;;;;;10.30;2.20;;;;;;;9.92;74.96;99239.58;109860;1274;22301;-60
2023/03/25 00:38:50;;;;;;;7.30;1.50;;;;;;;9.89;75.02;99237.09;109903;1283;23037;-60
2023/03/25 00:41:24;;;;;;;7.80;1.80;;;;;;;9.88;74.93;99237.69;109878;1272;22263;-60
2023/03/25 00:43:56;;;;;;;7.30;1.40;;;;;;;9.85;74.93;99234.34;109834;1277;22191;-60
2023/03/25 00:46:29;;;;;;;9.20;1.80;;;;;;;9.82;74.91;99233.44;109882;1279;22259;-60
2023/03/25 00:49:01;;;;;;;8.10;1.50;;;;;;;9.78;74.97;99234.14;109884;1270;22175;-60
2023/03/25 00:51:32;;;;;;;8.30;1.40;;;;;;;9.76;75.11;99238.59;109899;1276;22397;-61
2023/03/25 00:54:03;;;;;;;9.10;1.80;;;;;;;9.75;74.96;99245.05;109873;1283;23422;-60
2023/03/25 00:56:34;;;;;;;9.00;2.00;;;;;;;9.71;74.86;99241.13;109875;1270;22964;-59
2023/03/25 00:59:05;;;;;;;18.40;4.90;;;;;;;9.68;75.07;99245.67;109873;1276;22203;-60
2023/03/25 01:01:38;;;;;;;11.30;2.80;;;;;;;9.64;75.08;99238.61;109880;1276;22262;-60
2023/03/25 01:04:11;;;;;;;15.80;4.40;;;;;;;9.60;75.25;99236.36;109885;1270;22188;-60
2023/03/25 01:06:43;;;;;;;11.90;2.90;;;;;;;9.57;75.35;99237.39;109896;1271;22216;-60
2023/03/25 01:09:15;;;;;;;9.20;2.20;;;;;;;9.52;75.34;99233.10;109887;1276;22354;-60
2023/03/25 01:11:47;;;;;;;9.40;1.70;;;;;;;9.46;75.37;99239.75;109908;1283;22511;-60
2023/03/25 01:14:20;;;;;;;8.40;1.90;;;;;;;9.43;75.58;99243.21;109883;1276;22143;-60
2023/03/25 01:16:51;;;;;;;7.00;1.70;;;;;;;9.39;75.43;99235.20;106056;1279;25725;-58
2023/03/25 01:19:23;;;;;;;10.30;2.00;;;;;;;9.37;75.54;99228.02;105930;1280;22536;-58
2023/03/25 01:21:54;;;;;;;9.40;1.60;;;;;;;9.35;75.64;99217.73;109879;1277;23093;-59
2023/03/25 01:24:25;;;;;;;10.40;1.90;;;;;;;9.32;75.69;99222.58;109886;1267;22328;-59
2023/03/25 01:26:56;;;;;;;6.30;1.50;;;;;;;9.29;75.70;99217.70;109882;1273;22199;-58
2023/03/25 01:29:27;;;;;;;9.30;1.60;;;;;;;9.27;75.65;99218.69;109887;1277;22186;-59
2023/03/25 01:31:59;;;;;;;9.40;1.70;;;;;;;9.27;75.83;99213.36;109897;1279;22266;-59
2023/03/25 01:34:31;;;;;;;9.70;1.80;;;;;;;9.26;75.75;99219.48;109883;1279;23301;-59
2023/03/25 01:37:02;;;;;;;6.90;1.40;;;;;;;9.23;75.81;99223.72;109884;1279;22908;-58
2023/03/25 01:39:33;;;;;;;12.00;1.50;;;;;;;9.21;75.83;99223.80;109891;1276;22289;-59
2023/03/25 01:42:04;;;;;;;9.70;1.80;;;;;;;9.19;75.84;99219.79;109902;1283;22186;-63
2023/03/25 01:45:21;;;;;;;10.20;1.60;;;;;;;9.16;75.87;99216.66;109884;1283;22167;-59
2023/03/25 01:48:01;;;;;;;10.90;1.70;;;;;;;9.08;75.90;99208.70;109481;1288;22255;-59
2023/03/25 01:50:34;;;;;;;9.20;1.60;;;;;;;9.04;76.06;99206.97;109469;1288;22209;-59
2023/03/25 01:53:06;;;;;;;8.90;1.80;;;;;;;9.03;76.13;99204.77;109435;1279;22415;-58
2023/03/25 01:55:40;;;;;;;7.90;2.00;;;;;;;8.98;76.17;99200.27;109444;1285;22512;-59
2023/03/25 01:58:15;;;;;;;7.10;1.70;;;;;;;8.94;76.34;99195.39;109462;1285;22193;-59
2023/03/25 02:00:49;;;;;;;7.30;2.00;;;;;;;8.93;76.24;99190.07;109465;1285;22165;-59
2023/03/25 02:03:24;;;;;;;7.50;1.60;;;;;;;8.93;76.33;99191.92;109469;1282;22263;-59
2023/03/25 02:06:01;;;;;;;7.00;1.50;;;;;;;8.92;76.41;99191.88;109470;1288;22366;-59
2023/03/25 02:08:36;;;;;;;9.60;1.70;;;;;;;8.92;76.35;99189.20;109478;1279;23534;-59
2023/03/25 02:11:08;;;;;;;9.30;1.50;;;;;;;8.92;76.30;99190.36;109429;1285;22285;-59
2023/03/25 02:13:41;;;;;;;7.50;1.70;;;;;;;8.92;76.44;99182.20;109473;1283;22945;-59
2023/03/25 02:16:32;;;;;;;8.80;1.60;;;;;;;8.92;76.52;99178.55;109449;1284;22277;-59
2023/03/25 02:19:31;;;;;;;7.70;1.70;;;;;;;8.91;76.43;99179.46;109438;1278;22285;-59
2023/03/25 02:22:40;;;;;;;9.50;1.80;;;;;;;8.89;76.40;99174.09;109601;1279;22230;-59
2023/03/25 02:25:24;;;;;;;12.70;1.80;;;;;;;8.86;76.32;99182.57;109849;1277;22244;-58
2023/03/25 02:28:08;;;;;;;7.90;1.70;;;;;;;8.82;76.37;99182.47;109871;1274;22332;-59
2023/03/25 02:30:59;;;;;;;7.80;1.90;;;;;;;8.80;76.52;99182.96;109879;1276;22368;-59
2023/03/25 02:33:46;;;;;;;9.30;2.10;;;;;;;8.77;76.50;99180.35;109816;1276;22165;-58
2023/03/25 02:36:44;;;;;;;7.50;1.50;;;;;;;8.74;76.53;99182.45;109868;1274;22212;-59
2023/03/25 02:39:19;;;;;;;8.90;1.90;;;;;;;8.70;76.49;99181.61;109866;1268;22405;-60
2023/03/25 02:41:57;;;;;;;10.20;1.80;;;;;;;8.69;76.84;99179.83;109847;1273;22246;-59
2023/03/25 02:44:35;;;;;;;9.60;1.90;;;;;;;8.66;76.68;99176.11;109900;1277;22385;-59
2023/03/25 02:47:10;;;;;;;10.30;1.70;;;;;;;8.65;76.73;99175.54;109867;1277;22197;-59
2023/03/25 02:49:45;;;;;;;8.00;1.70;;;;;;;8.62;76.71;99175.05;109889;1270;22338;-59
2023/03/25 02:52:20;;;;;;;10.60;2.10;;;;;;;8.61;76.60;99175.05;109878;1277;22333;-59
2023/03/25 02:54:57;;;;;;;9.50;2.20;;;;;;;8.60;76.82;99177.61;109924;1267;22191;-59
2023/03/25 02:57:31;;;;;;;8.50;1.90;;;;;;;8.58;76.69;99179.13;109901;1267;22861;-59
2023/03/25 03:00:12;;;;;;;7.80;1.50;;;;;;;8.57;76.87;99184.16;109839;1282;22147;-60
2023/03/25 03:02:45;;;;;;;10.90;1.80;;;;;;;8.56;76.89;99182.54;109906;1282;22190;-59
2023/03/25 03:05:28;;;;;;;9.00;1.90;;;;;;;8.55;76.80;99180.95;109894;1280;23096;-59
2023/03/25 03:08:17;;;;;;;10.20;1.90;;;;;;;8.52;76.78;99180.56;109907;1270;22214;-59
2023/03/25 03:10:55;;;;;;;8.90;1.90;;;;;;;8.49;76.86;99183.87;109798;1273;22283;-58
2023/03/25 03:13:39;;;;;;;11.60;2.60;;;;;;;8.46;76.89;99179.54;109828;1275;22287;-58
2023/03/25 03:16:18;;;;;;;10.00;2.20;;;;;;;8.45;76.95;99178.98;109158;1276;24272;-58
2023/03/25 03:18:57;;;;;;;9.10;1.80;;;;;;;8.44;77.12;99177.50;109885;1273;22949;-59
2023/03/25 03:21:37;;;;;;;11.30;2.00;;;;;;;8.41;77.06;99177.31;109866;1274;22208;-59
2023/03/25 03:24:16;;;;;;;11.20;2.50;;;;;;;8.40;76.96;99176.60;109890;1268;22775;-59
2023/03/25 03:26:54;;;;;;;8.00;2.10;;;;;;;8.39;77.15;99180.88;109886;1282;22339;-59
2023/03/25 03:29:31;;;;;;;13.80;2.60;;;;;;;8.38;77.18;99178.91;109907;1271;22235;-59
2023/03/25 03:32:07;;;;;;;10.50;2.20;;;;;;;8.36;77.33;99180.86;109838;1278;22195;-59
2023/03/25 03:34:46;;;;;;;10.90;2.40;;;;;;;8.35;77.29;99185.20;109799;1279;22266;-59
2023/03/25 03:37:21;;;;;;;12.50;3.20;;;;;;;8.35;77.33;99192.02;109877;1279;22192;-59
2023/03/25 03:39:55;;;;;;;10.60;2.40;;;;;;;8.34;77.40;99193.67;109816;1277;22346;-58
2023/03/25 03:42:34;;;;;;;11.30;2.00;;;;;;;8.33;77.47;99192.80;109875;1267;23055;-59
2023/03/25 03:45:13;;;;;;;12.40;3.20;;;;;;;8.31;77.45;99194.34;109884;1283;22197;-59
2023/03/25 03:47:48;;;;;;;12.90;2.40;;;;;;;8.28;77.81;99192.70;109881;1267;22208;-59
2023/03/25 03:50:24;;;;;;;11.60;2.20;;;;;;;8.26;77.78;99190.98;109883;1279;22284;-58
2023/03/25 03:53:01;;;;;;;9.70;2.80;;;;;;;8.23;77.81;99196.25;109888;1267;22331;-59
2023/03/25 03:55:37;;;;;;;13.00;2.90;;;;;;;8.20;77.83;99196.77;109781;1276;22172;-59
2023/03/25 03:58:14;;;;;;;11.70;2.80;;;;;;;8.20;77.93;99199.55;109892;1276;22192;-59
2023/03/25 04:00:49;;;;;;;12.40;3.00;;;;;;;8.19;78.05;99200.10;109886;1276;23158;-59
2023/03/25 04:03:27;;;;;;;11.60;2.90;;;;;;;8.14;78.13;99197.83;109813;1267;22579;-59
2023/03/25 04:06:07;;;;;;;13.30;2.60;;;;;;;8.13;78.02;99198.88;109885;1282;23137;-59
2023/03/25 04:08:44;;;;;;;14.70;3.20;;;;;;;8.14;78.08;99198.32;109901;1283;23141;-58
2023/03/25 04:11:23;;;;;;;14.50;3.50;;;;;;;8.14;78.06;99201.36;109821;1276;22196;-59
2023/03/25 04:13:57;;;;;;;16.30;4.00;;;;;;;8.14;78.13;99196.35;109897;1280;22143;-59
2023/03/25 04:16:28;;;;;;;11.80;3.30;;;;;;;8.14;78.00;99198.42;109871;1276;22164;-59
2023/03/25 04:18:59;;;;;;;15.10;3.10;;;;;;;8.13;78.16;99198.52;109875;1270;22191;-59
2023/03/25 04:21:30;;;;;;;13.50;3.10;;;;;;;8.12;78.13;99200.58;109873;1267;22183;-59
2023/03/25 04:24:01;;;;;;;9.00;2.70;;;;;;;8.10;78.11;99196.45;109891;1283;22254;-59
2023/03/25 04:26:32;;;;;;;13.50;2.60;;;;;;;8.10;78.19;99196.45;109885;1280;22235;-58
2023/03/25 04:29:03;;;;;;;12.20;3.00;;;;;;;8.07;78.36;99196.36;109871;1267;22165;-59
2023/03/25 04:31:34;;;;;;;13.30;3.00;;;;;;;8.03;78.17;99197.14;109883;1274;22357;-60
2023/03/25 04:34:06;;;;;;;9.00;2.40;;;;;;;8.00;78.53;99201.94;109898;1273;22159;-60
2023/03/25 04:36:37;;;;;;;10.80;2.70;;;;;;;7.99;78.42;99202.02;109887;1273;22163;-59
2023/03/25 04:39:08;;;;;;;14.40;3.70;;;;;;;7.99;78.47;99199.30;109888;1277;22239;-58
2023/03/25 04:41:39;;;;;;;12.00;2.70;;;;;;;7.99;78.40;99198.45;109888;1282;22317;-59
2023/03/25 04:44:11;;;;;;;15.30;4.30;;;;;;;7.98;78.33;99198.79;109867;1267;22909;-60
2023/03/25 04:46:42;;;;;;;11.80;3.40;;;;;;;7.97;78.28;99207.97;109869;1267;22155;-59
2023/03/25 04:49:20;;;;;;;12.40;3.40;;;;;;;7.95;78.38;99207.64;109889;1273;22367;-60
2023/03/25 04:51:52;;;;;;;12.20;3.30;;;;;;;7.93;78.49;99211.80;109908;1276;22631;-60
2023/03/25 04:54:23;;;;;;;16.10;3.20;;;;;;;7.89;78.50;99209.77;109890;1275;22216;-59
2023/03/25 04:56:55;;;;;;;12.10;2.70;;;;;;;7.86;78.72;99210.80;109874;1267;22212;-59
2023/03/25 04:59:27;;;;;;;13.70;3.20;;;;;;;7.82;78.75;99211.91;109697;1276;22346;-59
2023/03/25 05:01:58;;;;;;;9.70;3.00;;;;;;;7.81;78.95;99214.93;109747;1276;22212;-59
2023/03/25 05:04:29;;;;;;;14.30;3.20;;;;;;;7.79;78.91;99213.98;109851;1272;22101;-59
2023/03/25 05:06:59;;;;;;;14.30;4.10;;;;;;;7.76;79.03;99218.45;109846;1276;22353;-58
2023/03/25 05:09:30;;;;;;;11.50;2.80;;;;;;;7.73;79.15;99213.22;109870;1270;22368;-59
2023/03/25 05:12:01;;;;;;;12.90;3.40;;;;;;;7.71;79.13;99214.65;109861;1282;22306;-58
2023/03/25 05:14:32;;;;;;;16.30;3.90;;;;;;;7.69;79.24;99209.88;109830;1273;22204;-58
2023/03/25 05:17:03;;;;;;;9.90;3.10;;;;;;;7.67;79.39;99213.94;105778;1280;22526;-59
2023/03/25 05:19:34;;;;;;;10.80;3.10;;;;;;;7.65;79.46;99209.34;105822;1282;25480;-59
2023/03/25 05:22:07;;;;;;;10.20;2.60;;;;;;;7.61;79.57;99208.75;105837;1270;22533;-58
2023/03/25 05:24:39;;;;;;;14.00;3.10;;;;;;;7.59;79.70;99208.87;105779;1277;23048;-58
2023/03/25 05:27:09;;;;;;;11.00;2.90;;;;;;;7.58;79.75;99207.98;109859;1273;22172;-58
2023/03/25 05:29:43;;;;;;;11.80;2.70;;;;;;;7.57;79.77;99208.23;109864;1283;22394;-60
2023/03/25 05:32:16;;;;;;;12.00;3.20;;;;;;;7.58;79.73;99209.11;109826;1276;22331;-59
2023/03/25 05:34:47;;;;;;;10.90;3.60;;;;;;;7.59;79.76;99210.23;109862;1279;22186;-59
2023/03/25 05:37:18;;;;;;;13.50;3.80;;;;;;;7.60;79.83;99210.73;109854;1275;22155;-59
2023/03/25 05:39:50;;;;;;;11.30;3.00;;;;;;;7.61;79.86;99211.92;109898;1277;22186;-61
2023/03/25 05:42:21;;;;;;;19.90;3.10;;;;;;;7.62;80.00;99211.89;109835;1276;22205;-61
2023/03/25 05:44:53;;;;;;;11.90;2.80;;;;;;;7.62;80.02;99205.83;109774;1276;22401;-61
2023/03/25 05:47:27;;;;;;;13.20;3.10;;;;;;;7.64;80.06;99204.45;109796;1267;22971;-61
2023/03/25 05:49:59;;;;;;;12.90;3.50;;;;;;;7.65;80.36;99204.55;109842;1276;22227;-60
2023/03/25 05:52:29;;;;;;;13.10;3.20;;;;;;;7.65;80.35;99203.30;109882;1276;22215;-61
2023/03/25 05:55:01;;;;;;;10.20;2.90;;;;;;;7.66;80.56;99201.39;109806;1274;22871;-59
2023/03/25 05:57:32;;;;;;;9.40;3.20;;;;;;;7.67;80.60;99206.60;109862;1267;22181;-59
2023/03/25 06:00:07;;;;;;;11.20;3.40;;;;;;;7.68;81.11;99214.08;106956;1267;22585;-60
2023/03/25 06:02:38;;;;;;;17.30;4.00;;;;;;;7.68;81.07;99217.02;109903;1282;22947;-60
2023/03/25 06:05:12;;;;;;;14.20;3.40;;;;;;;7.69;81.32;99220.66;109870;1275;22659;-59
2023/03/25 06:07:44;;;;;;;14.00;3.90;;;;;;;7.72;81.50;99223.59;109884;1267;22545;-60
2023/03/25 06:10:16;;;;;;;9.40;2.70;;;;;;;7.75;81.79;99226.88;109866;1272;22234;-60
2023/03/25 06:12:48;;;;;;;10.60;3.10;;;;;;;7.78;81.95;99232.38;109873;1279;23060;-60
2023/03/25 06:15:32;;;;;;;13.50;2.90;;;;;;;7.83;82.12;99228.14;109861;1275;22227;-66
2023/03/25 06:18:03;;;;;;;9.70;2.90;;;;;;;7.89;82.16;99227.61;109895;1282;22195;-60
2023/03/25 06:20:33;;;;;;;16.90;3.10;;;;;;;7.97;82.46;99225.39;109874;1276;22159;-63
2023/03/25 06:23:05;;;;;;;15.40;3.30;;;;;;;8.06;82.44;99226.92;109860;1272;22179;-60
2023/03/25 06:25:36;;;;;;;13.50;3.70;;;;;;;8.13;82.50;99227.44;109878;1279;22913;-59
2023/03/25 06:28:07;;;;;;;11.40;3.00;;;;;;;8.23;82.65;99225.38;109874;1273;22227;-60
2023/03/25 06:30:38;;;;;;;13.50;3.30;;;;;;;8.33;82.76;99226.23;109792;1273;22260;-61
2023/03/25 06:33:13;;;;;;;11.00;2.90;;;;;;;8.45;83.02;99226.05;109875;1267;22904;-60
2023/03/25 06:35:48;;;;;;;15.60;3.60;;;;;;;8.60;83.10;99230.47;109862;1267;22323;-60
2023/03/25 06:38:20;;;;;;;14.10;3.60;;;;;;;8.75;83.30;99231.28;109864;1272;22213;-60
2023/03/25 06:40:51;;;;;;;15.80;4.20;;;;;;;8.91;83.26;99233.05;109866;1270;22248;-60
2023/03/25 06:43:22;;;;;;;11.50;3.70;;;;;;;9.09;83.31;99232.86;109864;1273;22885;-60
2023/03/25 06:45:53;;;;;;;11.90;3.70;;;;;;;9.22;83.14;99226.76;109853;1276;22375;-60
2023/03/25 06:48:24;;;;;;;10.80;3.20;;;;;;;9.36;82.97;99227.31;109879;1274;23367;-60
2023/03/25 06:50:55;;;;;;;8.70;2.70;;;;;;;9.49;83.03;99226.05;109867;1279;22252;-60
2023/03/25 06:53:26;;;;;;;12.20;3.10;;;;;;;9.61;82.52;99219.80;109848;1279;22164;-60
2023/03/25 06:55:59;;;;;;;14.60;3.80;;;;;;;9.70;82.66;99216.30;109839;1272;22243;-59
2023/03/25 06:58:33;;;;;;;12.90;3.60;;;;;;;9.80;82.65;99216.36;109867;1276;22195;-60
2023/03/25 07:01:05;;;;;;;10.20;3.00;;;;;;;9.89;82.45;99216.02;109818;1282;22244;-60
2023/03/25 07:03:37;;;;;;;16.00;2.70;;;;;;;9.96;82.23;99208.28;109880;1272;22126;-60
2023/03/25 07:06:14;;;;;;;12.70;2.80;;;;;;;10.01;82.07;99201.96;109883;1274;22204;-60
2023/03/25 07:08:46;;;;;;;15.20;2.90;;;;;;;10.08;81.95;99206.11;109836;1283;22308;-60
2023/03/25 07:11:20;;;;;;;18.50;3.10;;;;;;;10.14;81.86;99216.00;109858;1276;22184;-59
2023/03/25 07:13:52;;;;;;;9.10;2.40;;;;;;;10.20;81.75;99224.50;109841;1270;22355;-60
2023/03/25 07:16:24;;;;;;;11.90;3.10;;;;;;;10.23;81.49;99229.69;109854;1276;23065;-59
2023/03/25 07:18:56;;;;;;;8.20;2.20;;;;;;;10.26;81.65;99227.05;109889;1277;22661;-60
2023/03/25 07:21:27;;;;;;;10.50;2.50;;;;;;;10.28;82.01;99221.94;109875;1274;22891;-60
2023/03/25 07:23:58;;;;;;;11.00;3.00;;;;;;;10.30;82.12;99217.08;109877;1277;22951;-60
2023/03/25 07:26:29;;;;;;;10.30;2.50;;;;;;;10.32;82.24;99215.97;109841;1277;22430;-60
2023/03/25 07:29:00;;;;;;;9.10;2.50;;;;;;;10.35;82.23;99216.34;109849;1279;22246;-60
2023/03/25 07:31:31;;;;;;;9.60;2.00;;;;;;;10.39;82.09;99214.88;109870;1277;22198;-61
2023/03/25 07:34:01;;;;;;;11.80;2.80;;;;;;;10.43;82.02;99211.74;109891;1276;22926;-61
2023/03/25 07:36:33;;;;;;;9.50;1.90;;;;;;;10.47;81.80;99212.15;109853;1268;22773;-60
2023/03/25 07:39:04;;;;;;;8.30;1.70;;;;;;;10.50;81.61;99209.48;109882;1282;22197;-60
2023/03/25 07:41:35;;;;;;;8.30;1.90;;;;;;;10.53;81.94;99215.77;109824;1276;22214;-60
2023/03/25 07:44:06;;;;;;;11.60;1.70;;;;;;;10.54;81.67;99218.22;109854;1272;22229;-60
2023/03/25 07:46:37;;;;;;;7.20;1.50;;;;;;;10.54;81.76;99221.77;109817;1273;22843;-61
2023/03/25 07:49:08;;;;;;;7.80;1.70;;;;;;;10.55;81.50;99228.16;109828;1277;22310;-60
2023/03/25 07:51:39;;;;;;;4.20;1.30;;;;;;;10.56;81.63;99228.03;109852;1273;22221;-59
2023/03/25 07:54:10;;;;;;;7.20;1.40;;;;;;;10.58;81.75;99228.28;109857;1274;22307;-61
2023/03/25 07:56:41;;;;;;;8.60;1.40;;;;;;;10.61;81.68;99220.77;109832;1282;23141;-60
2023/03/25 07:59:12;;;;;;;8.30;1.50;;;;;;;10.64;81.61;99218.90;109834;1276;23904;-59
2023/03/25 08:01:43;;;;;;;6.20;1.50;;;;;;;10.67;81.46;99219.92;109875;1276;23413;-59
2023/03/25 08:04:14;;;;;;;7.50;1.80;;;;;;;10.70;81.34;99220.59;109827;1276;22133;-58
2023/03/25 08:06:45;;;;;;;5.80;1.50;;;;;;;10.71;81.05;99218.35;109833;1276;22411;-59
2023/03/25 08:09:16;;;;;;;7.10;1.00;;;;;;;10.73;80.95;99218.16;109870;1267;22296;-58
2023/03/25 08:11:47;;;;;;;6.40;1.20;;;;;;;10.78;80.49;99216.34;109866;1279;22366;-60
2023/03/25 08:14:18;;;;;;;7.80;1.20;;;;;;;10.83;80.28;99215.23;107844;1272;22527;-59
2023/03/25 08:16:49;;;;;;;2.20;0.70;;;;;;;10.89;80.07;99211.39;109830;1270;22162;-60
2023/03/25 08:19:20;;;;;;;6.00;0.80;;;;;;;10.96;79.94;99217.13;109842;1273;22896;-59
2023/03/25 08:21:51;;;;;;;6.50;0.90;;;;;;;11.03;79.91;99219.06;109847;1273;22214;-60
2023/03/25 08:24:23;;;;;;;4.80;0.70;;;;;;;11.09;79.67;99219.83;109857;1267;23060;-60
2023/03/25 08:26:54;;;;;;;1.80;0.60;;;;;;;11.14;79.13;99225.06;109828;1277;22980;-60
2023/03/25 08:29:26;;;;;;;2.60;0.80;;;;;;;11.19;79.27;99224.40;109834;1279;22187;-60
2023/03/25 08:31:57;;;;;;;3.70;0.70;;;;;;;11.24;79.31;99224.10;109850;1273;22338;-59
2023/03/25 08:34:33;;;;;;;4.50;0.80;;;;;;;11.33;79.12;99224.40;109841;1276;22222;-60
2023/03/25 08:37:06;;;;;;;5.10;1.10;;;;;;;11.48;79.43;99220.89;109858;1279;22199;-60
2023/03/25 08:39:38;;;;;;;4.00;0.70;;;;;;;11.68;79.27;99219.20;109843;1267;22144;-58
2023/03/25 08:42:10;;;;;;;4.50;1.00;;;;;;;11.91;78.99;99218.70;109857;1267;22223;-59
2023/03/25 08:44:41;;;;;;;10.20;1.40;;;;;;;12.08;78.35;99211.48;109857;1273;23042;-58
2023/03/25 08:47:12;;;;;;;6.30;0.70;;;;;;;12.24;78.06;99213.77;107052;1267;25657;-57
2023/03/25 08:49:43;;;;;;;4.30;0.70;;;;;;;12.35;77.58;99215.19;105804;1270;22556;-61
2023/03/25 08:52:15;;;;;;;4.10;0.60;;;;;;;12.46;77.11;99212.43;105762;1283;23046;-58
2023/03/25 08:54:46;;;;;;;4.20;0.50;;;;;;;12.57;76.24;99213.61;105780;1276;22799;-59
2023/03/25 08:57:17;;;;;;;2.80;0.50;;;;;;;12.64;76.29;99210.50;105900;1279;24243;-63
2023/03/25 08:59:49;;;;;;;3.80;0.60;;;;;;;12.68;75.12;99208.59;105946;1277;25436;-59
2023/03/25 09:02:20;;;;;;;4.50;0.40;;;;;;;12.68;74.47;99206.50;105933;1276;22549;-61
2023/03/25 09:04:51;;;;;;;2.90;0.50;;;;;;;12.67;73.64;99207.02;109840;1270;22967;-62
2023/03/25 09:07:22;;;;;;;3.50;0.60;;;;;;;12.64;72.49;99205.11;109810;1273;23325;-62
2023/03/25 09:09:53;;;;;;;5.00;0.40;;;;;;;12.59;72.52;99207.32;109861;1272;22307;-61
2023/03/25 09:12:24;;;;;;;4.90;0.50;;;;;;;12.54;72.88;99200.84;109848;1267;22958;-62
2023/03/25 09:14:55;;;;;;;3.00;0.50;;;;;;;12.50;72.52;99200.45;109855;1280;22199;-62
2023/03/25 09:17:27;;;;;;;5.20;0.60;;;;;;;12.46;71.86;99200.52;109861;1273;22196;-63
2023/03/25 09:19:58;;;;;;;3.90;0.50;;;;;;;12.41;71.90;99199.07;109938;1276;22193;-62
2023/03/25 09:22:29;;;;;;;2.70;0.30;;;;;;;12.37;71.47;99195.73;109859;1276;22214;-62
2023/03/25 09:25:00;;;;;;;3.60;0.50;;;;;;;12.35;71.30;99194.83;109834;1275;23083;-62
2023/03/25 09:27:31;;;;;;;3.80;0.70;;;;;;;12.34;71.79;99196.31;109873;1276;22230;-62
2023/03/25 09:30:02;;;;;;;2.10;0.40;;;;;;;12.34;71.62;99199.01;109881;1282;22907;-61
2023/03/25 09:32:33;;;;;;;4.30;0.60;;;;;;;12.34;71.73;99203.42;109845;1267;22221;-60
2023/03/25 09:35:04;;;;;;;1.90;0.40;;;;;;;12.32;71.13;99200.69;109825;1267;23444;-61
2023/03/25 09:37:36;;;;;;;3.20;0.50;;;;;;;12.29;70.54;99204.78;109834;1276;23074;-60
2023/03/25 09:40:11;;;;;;;4.90;0.50;;;;;;;12.27;71.15;99200.77;109861;1275;22139;-60
2023/03/25 09:42:55;;;;;;;4.90;0.50;;;;;;;12.24;71.53;99202.30;109839;1276;22332;-59
2023/03/25 09:45:35;;;;;;;4.50;1.20;;;;;;;12.22;71.20;99205.88;109748;1267;22160;-58
2023/03/25 09:48:16;;;;;;;3.70;0.50;;;;;;;12.24;71.43;99205.58;109856;1276;22943;-58
2023/03/25 09:50:47;;;;;;;3.50;0.60;;;;;;;12.29;71.05;99201.02;109768;1282;22223;-58
2023/03/25 09:53:26;;;;;;;1.50;0.50;;;;;;;12.36;70.66;99200.36;109846;1279;22182;-58
2023/03/25 09:55:57;;;;;;;3.30;0.70;;;;;;;12.46;70.20;99204.95;109839;1274;23206;-58
2023/03/25 09:58:36;;;;;;;3.00;0.30;;;;;;;12.55;69.78;99204.19;109797;1274;22287;-58
2023/03/25 10:01:20;;;;;;;2.10;0.30;;;;;;;12.63;69.31;99204.65;109759;1273;22182;-59
2023/03/25 10:03:59;;;;;;;3.10;0.40;;;;;;;12.69;68.39;99197.90;109758;1278;22359;-59
2023/03/25 10:06:35;;;;;;;2.40;0.20;;;;;;;12.71;67.70;99200.29;109825;1276;22390;-59
2023/03/25 10:09:26;;;;;;;5.30;0.50;;;;;;;12.69;67.12;99195.80;109839;1282;22277;-58
2023/03/25 10:11:58;;;;;;;;;;;;;;;12.65;66.77;99198.16;109800;1282;23600;-59
2023/03/25 10:14:34;;;;;;;0.70;0.10;;;;;;;12.63;67.20;99199.30;109835;1276;22168;-60
2023/03/25 10:17:17;;;;;;;1.50;0.20;;;;;;;12.64;66.95;99199.80;109725;1270;22177;-60
2023/03/25 10:20:04;;;;;;;1.00;0.20;;;;;;;12.63;66.13;99197.48;109867;1276;22825;-59
2023/03/25 10:22:44;;;;;;;2.60;0.30;;;;;;;12.63;64.70;99195.02;109745;1270;22977;-59
2023/03/25 10:25:15;;;;;;;;;;;;;;;12.64;64.33;99190.74;109842;1273;22445;-59
2023/03/25 10:27:49;;;;;;;2.00;0.10;;;;;;;12.67;63.34;99184.46;109824;1276;22338;-60
2023/03/25 10:30:23;;;;;;;7.60;0.30;;;;;;;12.70;63.60;99182.31;109808;1276;22180;-58
2023/03/25 10:32:57;;;;;;;2.90;0.50;;;;;;;12.72;63.56;99182.81;109863;1267;22282;-59
2023/03/25 10:35:31;;;;;;;5.90;0.40;;;;;;;12.72;63.07;99186.21;109838;1275;23045;-59
2023/03/25 10:38:06;;;;;;;4.80;0.30;;;;;;;12.68;62.75;99183.75;109833;1275;22119;-58
2023/03/25 10:40:44;;;;;;;1.40;0.30;;;;;;;12.60;63.55;99187.42;105698;1280;22526;-59
2023/03/25 10:43:24;;;;;;;1.30;0.20;;;;;;;12.49;63.78;99185.54;109796;1276;22207;-59
2023/03/25 10:46:00;;;;;;;3.70;0.50;;;;;;;12.46;64.11;99175.52;109814;1276;22171;-59
2023/03/25 10:48:32;;;;;;;2.20;0.20;;;;;;;12.51;63.91;99173.51;109831;1267;22221;-59
2023/03/25 10:51:08;;;;;;;1.70;0.20;;;;;;;12.61;63.77;99167.49;109849;1282;22863;-59
2023/03/25 10:53:40;;;;;;;1.70;0.30;;;;;;;12.74;62.85;99168.80;109836;1277;22237;-59
2023/03/25 10:56:15;;;;;;;3.00;0.30;;;;;;;12.82;62.55;99170.20;109858;1276;22217;-60
2023/03/25 10:58:50;;;;;;;2.40;0.20;;;;;;;12.88;61.93;99171.48;109854;1270;22353;-59
2023/03/25 11:01:27;;;;;;;1.70;0.10;;;;;;;12.95;62.03;99171.79;109825;1273;22993;-59
2023/03/25 11:03:59;;;;;;;1.80;0.30;;;;;;;13.09;61.76;99170.44;109764;1277;23092;-59
2023/03/25 11:06:35;;;;;;;2.20;0.20;;;;;;;13.18;60.75;99165.73;108581;1267;22545;-58
2023/03/25 11:09:23;;;;;;;1.30;0.20;;;;;;;13.20;60.91;99164.59;106795;1267;26580;-58
2023/03/25 11:11:54;;;;;;;0.90;0.10;;;;;;;13.25;60.93;99158.64;109866;1282;22344;-59
2023/03/25 11:14:27;;;;;;;3.60;0.40;;;;;;;13.28;60.42;99162.64;109854;1276;22232;-58
2023/03/25 11:17:01;;;;;;;1.70;0.30;;;;;;;13.29;59.70;99155.70;109839;1276;22220;-59
2023/03/25 11:19:40;;;;;;;2.90;0.20;;;;;;;13.25;59.69;99147.52;109854;1276;22271;-59
2023/03/25 11:22:16;;;;;;;3.40;0.20;;;;;;;13.20;59.33;99144.65;109837;1276;22218;-59
2023/03/25 11:24:49;;;;;;;5.30;0.30;;;;;;;13.23;60.08;99139.74;109847;1279;22267;-59
2023/03/25 11:27:22;;;;;;;1.70;0.30;;;;;;;13.23;59.47;99137.55;109817;1274;22385;-59
2023/03/25 11:29:56;;;;;;;0.90;0.20;;;;;;;13.19;59.33;99137.45;109888;1276;22243;-60
2023/03/25 11:32:34;;;;;;;4.70;0.40;;;;;;;13.21;59.44;99133.95;109868;1277;22436;-60
2023/03/25 11:35:16;;;;;;;3.00;0.30;;;;;;;13.27;58.65;99134.05;109801;1267;22429;-59
2023/03/25 11:37:49;;;;;;;2.40;0.30;;;;;;;13.26;57.96;99133.14;109874;1282;22388;-59
2023/03/25 11:40:20;;;;;;;3.40;0.30;;;;;;;13.26;57.91;99134.63;109835;1275;22145;-59
2023/03/25 11:42:55;;;;;;;2.40;0.20;;;;;;;13.27;58.32;99134.91;109854;1275;22528;-59
2023/03/25 11:45:33;;;;;;;1.10;0.20;;;;;;;13.30;57.65;99134.29;109838;1275;22163;-58
2023/03/25 11:48:15;;;;;;;4.40;0.60;;;;;;;13.34;56.88;99131.39;109849;1279;22197;-58
2023/03/25 11:50:51;;;;;;;3.40;0.40;;;;;;;13.39;56.82;99122.67;109856;1273;22316;-60
2023/03/25 11:53:24;;;;;;;3.50;0.30;;;;;;;13.45;57.15;99121.89;109832;1277;22305;-61
2023/03/25 11:55:59;;;;;;;2.60;0.30;;;;;;;13.50;56.81;99125.98;109845;1282;22200;-60
2023/03/25 11:58:34;;;;;;;6.50;0.90;;;;;;;13.56;56.02;99132.42;109847;1276;23095;-60